Terminal Aerodrome Forecast
Issued by NWS

Home | Current Version | Previous Version | Text Only | Print | Product List | Glossary On
Versions: 1 2 3 4 5 6 7 8 9 10 11 12 13 14
000
FTUS45 KGJT 201136
TAFRIL
TAF
KRIL 201136Z 2012/2112 15003KT P6SM BKN030 OVC050
     FM201400 22004KT P6SM BKN035
     FM201900 25004KT P6SM SCT250
     FM210200 20005KT P6SM BKN110
     FM210900 23005KT P6SM SCT060
     FM211000 17004KT P6SM SCT060=

USA.gov is the U.S. government's official web portal to all federal, state and local government web resources and services.